sensor_id;sensor_type;location;lat;lon;timestamp;pressure;altitude;pressure_sealevel;temperature;humidity
2563;BME280;1291;51.420;6.970;2023-02-20T00:00:34;100984.81;;;37.33;8.61
2563;BME280;1291;51.420;6.970;2023-02-20T00:03:01;100975.97;;;35.53;9.91
2563;BME280;1291;51.420;6.970;2023-02-20T00:05:27;100980.63;;;32.08;11.97
2563;BME280;1291;51.420;6.970;2023-02-20T00:07:52;100973.72;;;36.17;9.47
2563;BME280;1291;51.420;6.970;2023-02-20T00:10:18;100969.38;;;36.82;9.20
2563;BME280;1291;51.420;6.970;2023-02-20T00:12:43;100971.06;;;37.23;8.97
2563;BME280;1291;51.420;6.970;2023-02-20T00:15:09;100966.00;;;36.38;9.51
2563;BME280;1291;51.420;6.970;2023-02-20T00:17:36;100958.25;;;36.59;9.37
2563;BME280;1291;51.420;6.970;2023-02-20T00:20:01;100951.03;;;34.60;10.56
2563;BME280;1291;51.420;6.970;2023-02-20T00:22:27;100954.72;;;36.32;9.50
2563;BME280;1291;51.420;6.970;2023-02-20T00:24:52;100954.47;;;35.37;10.43
2563;BME280;1291;51.420;6.970;2023-02-20T00:27:18;100961.75;;;37.27;9.11
2563;BME280;1291;51.420;6.970;2023-02-20T00:29:44;100962.03;;;37.61;8.67
2563;BME280;1291;51.420;6.970;2023-02-20T00:32:11;100963.56;;;37.01;9.07
2563;BME280;1291;51.420;6.970;2023-02-20T00:34:36;100962.16;;;33.59;11.40
2563;BME280;1291;51.420;6.970;2023-02-20T00:37:02;100958.94;;;34.94;10.48
2563;BME280;1291;51.420;6.970;2023-02-20T00:39:27;100954.53;;;35.93;10.07
2563;BME280;1291;51.420;6.970;2023-02-20T00:41:53;100951.03;;;33.49;12.29
2563;BME280;1291;51.420;6.970;2023-02-20T00:44:20;100942.34;;;34.55;11.16
2563;BME280;1291;51.420;6.970;2023-02-20T00:46:46;100944.38;;;35.11;10.49
2563;BME280;1291;51.420;6.970;2023-02-20T00:49:11;100932.53;;;34.99;10.80
2563;BME280;1291;51.420;6.970;2023-02-20T00:51:36;100923.47;;;37.32;9.13
2563;BME280;1291;51.420;6.970;2023-02-20T00:54:02;100928.44;;;34.47;10.91
2563;BME280;1291;51.420;6.970;2023-02-20T00:56:27;100925.56;;;35.25;10.76
2563;BME280;1291;51.420;6.970;2023-02-20T00:58:53;100921.91;;;34.05;11.95
2563;BME280;1291;51.420;6.970;2023-02-20T01:01:18;100916.00;;;36.31;9.40
2563;BME280;1291;51.420;6.970;2023-02-20T01:03:43;100924.34;;;34.86;10.66
2563;BME280;1291;51.420;6.970;2023-02-20T01:06:09;100909.63;;;36.05;9.88
2563;BME280;1291;51.420;6.970;2023-02-20T01:08:34;100902.84;;;34.99;10.54
2563;BME280;1291;51.420;6.970;2023-02-20T01:11:00;100900.69;;;34.75;10.76
2563;BME280;1291;51.420;6.970;2023-02-20T01:13:25;100894.75;;;33.44;11.86
2563;BME280;1291;51.420;6.970;2023-02-20T01:15:51;100886.72;;;32.41;12.57
2563;BME280;1291;51.420;6.970;2023-02-20T01:18:16;100888.59;;;33.42;11.87
2563;BME280;1291;51.420;6.970;2023-02-20T01:20:42;100888.28;;;34.42;11.59
2563;BME280;1291;51.420;6.970;2023-02-20T01:23:07;100882.44;;;35.09;10.49
2563;BME280;1291;51.420;6.970;2023-02-20T01:25:36;100882.13;;;32.96;11.87
2563;BME280;1291;51.420;6.970;2023-02-20T01:28:01;100878.28;;;34.44;11.38
2563;BME280;1291;51.420;6.970;2023-02-20T01:30:26;100871.88;;;33.20;12.03
2563;BME280;1291;51.420;6.970;2023-02-20T01:32:52;100867.47;;;36.15;10.00
2563;BME280;1291;51.420;6.970;2023-02-20T01:35:20;100872.47;;;31.85;13.36
2563;BME280;1291;51.420;6.970;2023-02-20T01:37:45;100868.44;;;35.45;10.07
2563;BME280;1291;51.420;6.970;2023-02-20T01:40:16;100867.78;;;37.40;8.92
2563;BME280;1291;51.420;6.970;2023-02-20T01:42:42;100876.63;;;34.72;10.81
2563;BME280;1291;51.420;6.970;2023-02-20T01:47:44;100868.31;;;34.75;11.00
2563;BME280;1291;51.420;6.970;2023-02-20T01:50:11;100865.66;;;36.16;10.06
2563;BME280;1291;51.420;6.970;2023-02-20T01:52:37;100861.50;;;38.01;8.93
2563;BME280;1291;51.420;6.970;2023-02-20T01:55:15;100854.94;;;34.43;11.02
2563;BME280;1291;51.420;6.970;2023-02-20T01:57:48;100858.59;;;37.30;9.10
2563;BME280;1291;51.420;6.970;2023-02-20T02:00:17;100851.19;;;35.34;10.58
2563;BME280;1291;51.420;6.970;2023-02-20T02:02:51;100844.53;;;36.48;9.86
2563;BME280;1291;51.420;6.970;2023-02-20T02:05:18;100854.34;;;34.69;10.82
2563;BME280;1291;51.420;6.970;2023-02-20T02:07:44;100849.47;;;38.41;8.66
2563;BME280;1291;51.420;6.970;2023-02-20T02:10:13;100844.38;;;36.24;9.58
2563;BME280;1291;51.420;6.970;2023-02-20T02:12:45;100833.50;;;37.89;8.81
2563;BME280;1291;51.420;6.970;2023-02-20T02:15:16;100837.03;;;35.99;9.75
2563;BME280;1291;51.420;6.970;2023-02-20T02:18:17;100832.88;;;36.86;9.31
2563;BME280;1291;51.420;6.970;2023-02-20T02:21:14;100819.63;;;36.43;9.64
2563;BME280;1291;51.420;6.970;2023-02-20T02:30:00;100800.78;;;37.06;8.75
2563;BME280;1291;51.420;6.970;2023-02-20T02:33:01;100787.63;;;34.27;10.56
2563;BME280;1291;51.420;6.970;2023-02-20T02:38:20;100782.63;;;35.91;9.98
2563;BME280;1291;51.420;6.970;2023-02-20T02:40:55;100776.19;;;35.10;10.25
2563;BME280;1291;51.420;6.970;2023-02-20T02:46:04;100780.03;;;35.89;9.81
2563;BME280;1291;51.420;6.970;2023-02-20T02:48:36;100784.91;;;36.62;9.22
2563;BME280;1291;51.420;6.970;2023-02-20T02:51:10;100778.31;;;34.47;10.80
2563;BME280;1291;51.420;6.970;2023-02-20T02:53:37;100788.78;;;34.38;10.54
2563;BME280;1291;51.420;6.970;2023-02-20T02:56:02;100791.97;;;37.28;9.15
2563;BME280;1291;51.420;6.970;2023-02-20T02:58:49;100786.81;;;35.55;10.08
2563;BME280;1291;51.420;6.970;2023-02-20T03:01:20;100782.75;;;36.93;9.35
2563;BME280;1291;51.420;6.970;2023-02-20T03:03:49;100775.31;;;34.07;10.54
2563;BME280;1291;51.420;6.970;2023-02-20T03:06:28;100763.44;;;35.68;9.96
2563;BME280;1291;51.420;6.970;2023-02-20T03:09:12;100761.56;;;32.86;12.16
2563;BME280;1291;51.420;6.970;2023-02-20T03:11:40;100751.03;;;35.78;10.01
2563;BME280;1291;51.420;6.970;2023-02-20T03:19:47;100754.72;;;35.23;9.94
2563;BME280;1291;51.420;6.970;2023-02-20T03:22:19;100750.00;;;34.40;10.65
2563;BME280;1291;51.420;6.970;2023-02-20T03:24:55;100747.19;;;33.51;11.59
2563;BME280;1291;51.420;6.970;2023-02-20T03:27:29;100744.38;;;32.89;11.89
2563;BME280;1291;51.420;6.970;2023-02-20T03:29:57;100740.97;;;34.70;11.18
2563;BME280;1291;51.420;6.970;2023-02-20T03:32:25;100756.66;;;33.74;11.90
2563;BME280;1291;51.420;6.970;2023-02-20T03:35:11;100754.72;;;32.30;12.18
2563;BME280;1291;51.420;6.970;2023-02-20T03:37:58;100740.69;;;33.07;12.20
2563;BME280;1291;51.420;6.970;2023-02-20T03:40:44;100733.50;;;32.59;12.46
2563;BME280;1291;51.420;6.970;2023-02-20T03:43:30;100736.31;;;33.99;10.90
2563;BME280;1291;51.420;6.970;2023-02-20T03:46:02;100734.38;;;32.42;12.16
2563;BME280;1291;51.420;6.970;2023-02-20T03:48:36;100739.25;;;33.80;10.89
2563;BME280;1291;51.420;6.970;2023-02-20T03:51:04;100727.41;;;34.72;10.98
2563;BME280;1291;51.420;6.970;2023-02-20T03:53:29;100734.09;;;34.21;11.06
2563;BME280;1291;51.420;6.970;2023-02-20T03:55:57;100727.19;;;34.60;10.94
2563;BME280;1291;51.420;6.970;2023-02-20T03:58:26;100731.63;;;32.77;11.91
2563;BME280;1291;51.420;6.970;2023-02-20T04:00:55;100736.59;;;31.81;12.39
2563;BME280;1291;51.420;6.970;2023-02-20T04:03:25;100727.06;;;35.05;10.70
2563;BME280;1291;51.420;6.970;2023-02-20T04:05:54;100744.38;;;32.22;12.55
2563;BME280;1291;51.420;6.970;2023-02-20T04:08:25;100725.63;;;34.56;10.80
2563;BME280;1291;51.420;6.970;2023-02-20T04:10:58;100734.16;;;35.48;10.37
2563;BME280;1291;51.420;6.970;2023-02-20T04:13:24;100729.13;;;34.73;10.73
2563;BME280;1291;51.420;6.970;2023-02-20T04:15:51;100720.59;;;33.91;10.77
2563;BME280;1291;51.420;6.970;2023-02-20T04:18:19;100722.03;;;33.20;11.26
2563;BME280;1291;51.420;6.970;2023-02-20T04:20:47;100723.44;;;36.13;9.78
2563;BME280;1291;51.420;6.970;2023-02-20T04:23:16;100719.97;;;34.02;11.24
2563;BME280;1291;51.420;6.970;2023-02-20T04:25:45;100724.81;;;35.12;10.16
2563;BME280;1291;51.420;6.970;2023-02-20T04:28:13;100721.00;;;32.07;13.02
2563;BME280;1291;51.420;6.970;2023-02-20T04:30:42;100726.25;;;33.72;11.16
2563;BME280;1291;51.420;6.970;2023-02-20T04:33:12;100725.94;;;33.15;11.63
2563;BME280;1291;51.420;6.970;2023-02-20T04:35:38;100723.13;;;32.84;12.31
2563;BME280;1291;51.420;6.970;2023-02-20T04:38:03;100719.06;;;34.89;10.13
2563;BME280;1291;51.420;6.970;2023-02-20T04:40:28;100727.34;;;35.00;10.53
2563;BME280;1291;51.420;6.970;2023-02-20T04:42:53;100722.84;;;34.29;11.05
2563;BME280;1291;51.420;6.970;2023-02-20T04:45:19;100723.25;;;35.49;9.88
2563;BME280;1291;51.420;6.970;2023-02-20T04:47:47;100733.09;;;36.43;9.43
2563;BME280;1291;51.420;6.970;2023-02-20T04:50:25;100734.66;;;32.70;12.10
2563;BME280;1291;51.420;6.970;2023-02-20T04:52:51;100725.25;;;34.48;10.79
2563;BME280;1291;51.420;6.970;2023-02-20T04:55:17;100725.53;;;35.82;9.48
2563;BME280;1291;51.420;6.970;2023-02-20T04:57:42;100718.13;;;34.33;10.77
2563;BME280;1291;51.420;6.970;2023-02-20T05:00:09;100719.41;;;33.51;11.62
2563;BME280;1291;51.420;6.970;2023-02-20T05:02:38;100711.09;;;31.72;12.91
2563;BME280;1291;51.420;6.970;2023-02-20T05:05:04;100703.06;;;32.58;12.57
2563;BME280;1291;51.420;6.970;2023-02-20T05:07:31;100700.38;;;37.09;9.06
2563;BME280;1291;51.420;6.970;2023-02-20T05:09:56;100697.97;;;34.24;10.75
2563;BME280;1291;51.420;6.970;2023-02-20T05:12:22;100700.50;;;35.26;10.01
2563;BME280;1291;51.420;6.970;2023-02-20T05:14:47;100702.75;;;32.47;12.28
2563;BME280;1291;51.420;6.970;2023-02-20T05:17:12;100699.41;;;31.73;12.42
2563;BME280;1291;51.420;6.970;2023-02-20T05:19:37;100683.75;;;32.83;12.22
2563;BME280;1291;51.420;6.970;2023-02-20T05:22:08;100691.78;;;34.07;11.14
2563;BME280;1291;51.420;6.970;2023-02-20T05:24:44;100683.94;;;31.79;12.84
2563;BME280;1291;51.420;6.970;2023-02-20T05:27:11;100693.25;;;34.99;10.73
2563;BME280;1291;51.420;6.970;2023-02-20T05:29:45;100689.44;;;32.77;12.09
2563;BME280;1291;51.420;6.970;2023-02-20T05:32:12;100683.63;;;33.64;11.81
2563;BME280;1291;51.420;6.970;2023-02-20T05:34:37;100687.41;;;35.20;10.76
2563;BME280;1291;51.420;6.970;2023-02-20T05:37:03;100688.78;;;32.74;11.96
2563;BME280;1291;51.420;6.970;2023-02-20T05:39:28;100680.03;;;35.36;10.08
2563;BME280;1291;51.420;6.970;2023-02-20T05:41:53;100691.88;;;33.45;11.26
2563;BME280;1291;51.420;6.970;2023-02-20T05:44:19;100681.47;;;36.72;9.20
2563;BME280;1291;51.420;6.970;2023-02-20T05:46:44;100683.16;;;35.70;10.27
2563;BME280;1291;51.420;6.970;2023-02-20T05:49:10;100690.38;;;34.59;11.09
2563;BME280;1291;51.420;6.970;2023-02-20T05:51:35;100677.47;;;33.62;11.40
2563;BME280;1291;51.420;6.970;2023-02-20T05:54:00;100686.16;;;36.94;9.21
2563;BME280;1291;51.420;6.970;2023-02-20T05:56:29;100684.88;;;34.75;10.70
2563;BME280;1291;51.420;6.970;2023-02-20T05:58:55;100680.94;;;34.81;10.21
2563;BME280;1291;51.420;6.970;2023-02-20T06:01:24;100675.72;;;35.87;9.86
2563;BME280;1291;51.420;6.970;2023-02-20T06:03:50;100672.41;;;36.21;9.69
2563;BME280;1291;51.420;6.970;2023-02-20T06:06:16;100675.91;;;34.89;10.62
2563;BME280;1291;51.420;6.970;2023-02-20T06:08:42;100685.69;;;35.04;10.76
2563;BME280;1291;51.420;6.970;2023-02-20T06:11:09;100671.28;;;35.45;10.18
2563;BME280;1291;51.420;6.970;2023-02-20T06:13:35;100672.94;;;36.52;9.74
2563;BME280;1291;51.420;6.970;2023-02-20T06:16:01;100669.31;;;34.37;10.99
2563;BME280;1291;51.420;6.970;2023-02-20T06:18:26;100671.00;;;36.03;9.99
2563;BME280;1291;51.420;6.970;2023-02-20T06:20:51;100677.34;;;37.87;8.67
2563;BME280;1291;51.420;6.970;2023-02-20T06:23:16;100684.53;;;35.36;10.55
2563;BME280;1291;51.420;6.970;2023-02-20T06:25:42;100689.59;;;36.96;9.27
2563;BME280;1291;51.420;6.970;2023-02-20T06:28:07;100683.25;;;34.73;10.66
2563;BME280;1291;51.420;6.970;2023-02-20T06:30:32;100689.22;;;34.63;10.55
2563;BME280;1291;51.420;6.970;2023-02-20T06:32:58;100707.81;;;35.78;10.01
2563;BME280;1291;51.420;6.970;2023-02-20T06:35:23;100706.75;;;34.56;10.92
2563;BME280;1291;51.420;6.970;2023-02-20T06:37:51;100710.81;;;34.49;11.01
2563;BME280;1291;51.420;6.970;2023-02-20T06:40:17;100721.38;;;37.18;8.99
2563;BME280;1291;51.420;6.970;2023-02-20T06:42:42;100719.13;;;37.36;8.87
2563;BME280;1291;51.420;6.970;2023-02-20T06:45:07;100722.94;;;35.54;10.12
2563;BME280;1291;51.420;6.970;2023-02-20T06:47:35;100716.88;;;34.53;11.29
2563;BME280;1291;51.420;6.970;2023-02-20T06:50:00;100723.63;;;36.10;9.84
2563;BME280;1291;51.420;6.970;2023-02-20T06:52:25;100720.47;;;33.32;11.65
2563;BME280;1291;51.420;6.970;2023-02-20T06:54:51;100736.94;;;36.13;9.75
2563;BME280;1291;51.420;6.970;2023-02-20T06:57:18;100736.28;;;33.38;11.62
2563;BME280;1291;51.420;6.970;2023-02-20T06:59:45;100734.25;;;34.18;10.79
2563;BME280;1291;51.420;6.970;2023-02-20T07:02:15;100735.31;;;35.58;9.86
2563;BME280;1291;51.420;6.970;2023-02-20T07:04:41;100733.84;;;35.11;10.52
2563;BME280;1291;51.420;6.970;2023-02-20T07:07:06;100730.56;;;36.40;9.32
2563;BME280;1291;51.420;6.970;2023-02-20T07:09:32;100727.56;;;36.45;9.46
2563;BME280;1291;51.420;6.970;2023-02-20T07:11:57;100724.66;;;35.69;10.06
2563;BME280;1291;51.420;6.970;2023-02-20T07:14:23;100721.25;;;37.92;8.59
2563;BME280;1291;51.420;6.970;2023-02-20T07:16:48;100729.44;;;37.55;8.81
2563;BME280;1291;51.420;6.970;2023-02-20T07:19:13;100732.28;;;35.62;9.79
2563;BME280;1291;51.420;6.970;2023-02-20T07:21:39;100739.47;;;37.90;8.49
2563;BME280;1291;51.420;6.970;2023-02-20T07:24:04;100736.91;;;34.49;10.70
2563;BME280;1291;51.420;6.970;2023-02-20T07:26:33;100742.97;;;34.52;10.70
2563;BME280;1291;51.420;6.970;2023-02-20T07:29:01;100735.66;;;35.66;10.08
2563;BME280;1291;51.420;6.970;2023-02-20T07:31:29;100736.06;;;35.33;10.49
2563;BME280;1291;51.420;6.970;2023-02-20T07:33:57;100731.59;;;35.19;10.52
2563;BME280;1291;51.420;6.970;2023-02-20T07:36:23;100724.03;;;35.78;9.62
2563;BME280;1291;51.420;6.970;2023-02-20T07:38:59;100732.09;;;35.38;10.04
2563;BME280;1291;51.420;6.970;2023-02-20T07:41:29;100723.66;;;36.49;9.50
2563;BME280;1291;51.420;6.970;2023-02-20T07:43:59;100732.09;;;36.31;9.33
2563;BME280;1291;51.420;6.970;2023-02-20T07:46:24;100721.59;;;31.95;13.29
2563;BME280;1291;51.420;6.970;2023-02-20T07:48:49;100738.41;;;32.84;12.31
2563;BME280;1291;51.420;6.970;2023-02-20T07:51:15;100732.06;;;35.11;10.30
2563;BME280;1291;51.420;6.970;2023-02-20T07:53:47;100739.22;;;33.18;11.59
2563;BME280;1291;51.420;6.970;2023-02-20T07:56:12;100726.19;;;34.61;10.84
2563;BME280;1291;51.420;6.970;2023-02-20T07:58:37;100734.47;;;37.48;8.96
2563;BME280;1291;51.420;6.970;2023-02-20T08:01:03;100725.94;;;34.80;10.59
2563;BME280;1291;51.420;6.970;2023-02-20T08:03:28;100731.28;;;35.78;9.73
2563;BME280;1291;51.420;6.970;2023-02-20T08:06:00;100730.66;;;34.77;10.25
2563;BME280;1291;51.420;6.970;2023-02-20T08:08:28;100726.34;;;35.97;9.99
2563;BME280;1291;51.420;6.970;2023-02-20T08:10:53;100727.59;;;35.52;10.15
2563;BME280;1291;51.420;6.970;2023-02-20T08:13:19;100730.75;;;35.58;9.87
2563;BME280;1291;51.420;6.970;2023-02-20T08:15:44;100726.97;;;36.91;9.16
2563;BME280;1291;51.420;6.970;2023-02-20T08:18:10;100734.34;;;34.76;10.87
2563;BME280;1291;51.420;6.970;2023-02-20T08:20:36;100740.34;;;36.17;9.76
2563;BME280;1291;51.420;6.970;2023-02-20T08:23:01;100726.09;;;37.03;9.37
2563;BME280;1291;51.420;6.970;2023-02-20T08:25:29;100727.44;;;36.59;9.25
2563;BME280;1291;51.420;6.970;2023-02-20T08:27:55;100734.13;;;36.92;9.12
2563;BME280;1291;51.420;6.970;2023-02-20T08:30:26;100725.00;;;35.23;10.10
2563;BME280;1291;51.420;6.970;2023-02-20T08:32:53;100732.53;;;35.45;10.19
2563;BME280;1291;51.420;6.970;2023-02-20T08:35:20;100720.06;;;37.24;9.20
2563;BME280;1291;51.420;6.970;2023-02-20T08:37:45;100725.72;;;37.45;8.86
2563;BME280;1291;51.420;6.970;2023-02-20T08:40:12;100724.19;;;36.28;9.55
2563;BME280;1291;51.420;6.970;2023-02-20T08:42:37;100724.75;;;35.68;10.16
2563;BME280;1291;51.420;6.970;2023-02-20T08:45:04;100723.00;;;36.45;9.64
2563;BME280;1291;51.420;6.970;2023-02-20T08:47:31;100714.81;;;36.96;9.19
2563;BME280;1291;51.420;6.970;2023-02-20T08:49:56;100718.06;;;36.65;9.67
2563;BME280;1291;51.420;6.970;2023-02-20T08:52:21;100710.84;;;35.87;10.33
2563;BME280;1291;51.420;6.970;2023-02-20T08:54:47;100714.06;;;36.19;9.74
2563;BME280;1291;51.420;6.970;2023-02-20T08:57:14;100712.13;;;34.99;10.58
2563;BME280;1291;51.420;6.970;2023-02-20T08:59:41;100710.88;;;35.99;10.19
2563;BME280;1291;51.420;6.970;2023-02-20T09:02:13;100715.56;;;36.23;9.39
2563;BME280;1291;51.420;6.970;2023-02-20T09:04:42;100708.91;;;38.34;8.24
2563;BME280;1291;51.420;6.970;2023-02-20T09:07:07;100725.84;;;37.67;9.00
2563;BME280;1291;51.420;6.970;2023-02-20T09:09:32;100725.38;;;36.75;9.50
2563;BME280;1291;51.420;6.970;2023-02-20T09:11:58;100716.09;;;37.40;8.90
2563;BME280;1291;51.420;6.970;2023-02-20T09:14:23;100736.19;;;36.11;10.12
2563;BME280;1291;51.420;6.970;2023-02-20T09:16:51;100718.03;;;34.92;10.73
2563;BME280;1291;51.420;6.970;2023-02-20T09:19:16;100723.06;;;35.92;10.11
2563;BME280;1291;51.420;6.970;2023-02-20T09:21:44;100724.25;;;35.21;10.57
2563;BME280;1291;51.420;6.970;2023-02-20T09:24:10;100721.53;;;33.60;11.64
2563;BME280;1291;51.420;6.970;2023-02-20T09:26:35;100725.91;;;36.03;10.13
2563;BME280;1291;51.420;6.970;2023-02-20T09:29:01;100722.81;;;36.74;9.89
2563;BME280;1291;51.420;6.970;2023-02-20T09:31:29;100727.22;;;36.49;9.70
2563;BME280;1291;51.420;6.970;2023-02-20T09:33:54;100720.06;;;37.72;8.67
2563;BME280;1291;51.420;6.970;2023-02-20T09:36:19;100719.88;;;38.55;8.33
2563;BME280;1291;51.420;6.970;2023-02-20T09:38:48;100732.47;;;35.87;10.32
2563;BME280;1291;51.420;6.970;2023-02-20T09:44:24;100720.00;;;35.02;11.07
2563;BME280;1291;51.420;6.970;2023-02-20T09:46:52;100714.97;;;35.25;10.55
2563;BME280;1291;51.420;6.970;2023-02-20T09:49:24;100716.78;;;33.65;12.18
2563;BME280;1291;51.420;6.970;2023-02-20T09:52:03;100715.22;;;34.64;11.64
2563;BME280;1291;51.420;6.970;2023-02-20T09:54:32;100714.44;;;37.27;9.53
2563;BME280;1291;51.420;6.970;2023-02-20T09:57:02;100704.94;;;36.58;9.79
2563;BME280;1291;51.420;6.970;2023-02-20T09:59:40;100714.78;;;38.17;8.69
2563;BME280;1291;51.420;6.970;2023-02-20T10:02:17;100710.34;;;38.50;8.40
2563;BME280;1291;51.420;6.970;2023-02-20T10:04:49;100723.00;;;36.71;9.80
2563;BME280;1291;51.420;6.970;2023-02-20T10:07:30;100721.72;;;36.25;10.01
2563;BME280;1291;51.420;6.970;2023-02-20T10:09:57;100716.28;;;34.33;11.87
2563;BME280;1291;51.420;6.970;2023-02-20T10:12:49;100698.19;;;34.50;11.49
2563;BME280;1291;51.420;6.970;2023-02-20T10:15:33;100698.38;;;35.31;10.70
2563;BME280;1291;51.420;6.970;2023-02-20T10:18:24;100705.13;;;33.95;12.13
2563;BME280;1291;51.420;6.970;2023-02-20T10:23:57;100702.66;;;36.01;10.21
2563;BME280;1291;51.420;6.970;2023-02-20T10:26:32;100699.50;;;37.81;9.27
2563;BME280;1291;51.420;6.970;2023-02-20T10:29:13;100682.28;;;34.88;11.35
2563;BME280;1291;51.420;6.970;2023-02-20T10:37:26;100676.56;;;37.73;9.46
2563;BME280;1291;51.420;6.970;2023-02-20T10:43:03;100669.22;;;37.03;9.76
2563;BME280;1291;51.420;6.970;2023-02-20T10:48:04;100665.03;;;36.49;10.32
2563;BME280;1291;51.420;6.970;2023-02-20T10:50:34;100671.66;;;38.59;8.90
2563;BME280;1291;51.420;6.970;2023-02-20T10:56:16;100673.69;;;35.90;10.42
2563;BME280;1291;51.420;6.970;2023-02-20T11:01:23;100644.47;;;37.20;9.68
2563;BME280;1291;51.420;6.970;2023-02-20T11:04:22;100634.66;;;36.07;10.41
2563;BME280;1291;51.420;6.970;2023-02-20T11:06:53;100631.31;;;35.78;10.78
2563;BME280;1291;51.420;6.970;2023-02-20T11:09:23;100620.91;;;36.36;10.34
2563;BME280;1291;51.420;6.970;2023-02-20T11:11:51;100636.38;;;35.30;10.95
2563;BME280;1291;51.420;6.970;2023-02-20T11:14:23;100624.81;;;36.06;10.70
2563;BME280;1291;51.420;6.970;2023-02-20T11:16:58;100638.28;;;36.94;10.04
2563;BME280;1291;51.420;6.970;2023-02-20T11:19:37;100636.03;;;36.64;10.33
2563;BME280;1291;51.420;6.970;2023-02-20T11:22:04;100636.97;;;37.48;9.62
2563;BME280;1291;51.420;6.970;2023-02-20T11:24:38;100639.16;;;36.45;10.54
2563;BME280;1291;51.420;6.970;2023-02-20T11:27:19;100644.91;;;38.21;9.19
2563;BME280;1291;51.420;6.970;2023-02-20T11:29:59;100639.16;;;36.45;10.35
2563;BME280;1291;51.420;6.970;2023-02-20T11:32:45;100642.88;;;37.53;9.43
2563;BME280;1291;51.420;6.970;2023-02-20T11:48:32;100654.88;;;35.76;10.84
2563;BME280;1291;51.420;6.970;2023-02-20T11:50:57;100657.00;;;37.81;9.36
2563;BME280;1291;51.420;6.970;2023-02-20T11:53:28;100646.13;;;36.86;10.01
2563;BME280;1291;51.420;6.970;2023-02-20T11:56:17;100649.03;;;35.82;10.64
2563;BME280;1291;51.420;6.970;2023-02-20T11:58:45;100640.31;;;39.21;8.76
2563;BME280;1291;51.420;6.970;2023-02-20T12:01:32;100645.59;;;38.00;9.31
2563;BME280;1291;51.420;6.970;2023-02-20T12:03:59;100649.00;;;36.72;10.09
2563;BME280;1291;51.420;6.970;2023-02-20T12:06:38;100656.81;;;35.99;10.60
2563;BME280;1291;51.420;6.970;2023-02-20T12:09:11;100660.13;;;37.88;9.13
2563;BME280;1291;51.420;6.970;2023-02-20T12:11:38;100653.25;;;36.87;9.83
2563;BME280;1291;51.420;6.970;2023-02-20T12:14:12;100647.78;;;37.13;10.03
2563;BME280;1291;51.420;6.970;2023-02-20T12:22:19;100632.81;;;38.13;9.19
2563;BME280;1291;51.420;6.970;2023-02-20T12:24:53;100618.97;;;35.06;11.44
2563;BME280;1291;51.420;6.970;2023-02-20T12:35:33;100609.03;;;36.99;10.11
2563;BME280;1291;51.420;6.970;2023-02-20T12:43:45;100623.13;;;37.75;9.79
2563;BME280;1291;51.420;6.970;2023-02-20T12:49:33;100599.97;;;37.36;9.64
2563;BME280;1291;51.420;6.970;2023-02-20T12:58:06;100588.81;;;38.87;9.05
2563;BME280;1291;51.420;6.970;2023-02-20T13:01:06;100594.94;;;37.43;10.04
2563;BME280;1291;51.420;6.970;2023-02-20T13:06:45;100575.50;;;37.49;9.51
2563;BME280;1291;51.420;6.970;2023-02-20T13:09:19;100555.53;;;35.92;10.97
2563;BME280;1291;51.420;6.970;2023-02-20T13:11:48;100537.97;;;36.23;10.60
2563;BME280;1291;51.420;6.970;2023-02-20T13:16:53;100558.69;;;37.79;9.50
2563;BME280;1291;51.420;6.970;2023-02-20T13:19:26;100545.50;;;37.16;9.88
2563;BME280;1291;51.420;6.970;2023-02-20T13:21:58;100545.28;;;37.19;10.06
2563;BME280;1291;51.420;6.970;2023-02-20T13:24:32;100533.25;;;35.37;11.64
2563;BME280;1291;51.420;6.970;2023-02-20T13:27:03;100542.28;;;37.58;9.77
2563;BME280;1291;51.420;6.970;2023-02-20T13:29:32;100525.28;;;37.45;9.93
2563;BME280;1291;51.420;6.970;2023-02-20T13:32:01;100528.44;;;35.68;11.15
2563;BME280;1291;51.420;6.970;2023-02-20T13:34:31;100516.22;;;37.79;9.73
2563;BME280;1291;51.420;6.970;2023-02-20T13:37:01;100515.81;;;36.18;10.65
2563;BME280;1291;51.420;6.970;2023-02-20T13:42:28;100529.88;;;37.78;9.75
2563;BME280;1291;51.420;6.970;2023-02-20T13:44:53;100535.59;;;39.80;8.30
2563;BME280;1291;51.420;6.970;2023-02-20T13:47:29;100546.00;;;39.75;8.29
2563;BME280;1291;51.420;6.970;2023-02-20T13:49:57;100534.13;;;40.47;7.80
2563;BME280;1291;51.420;6.970;2023-02-20T13:52:42;100543.09;;;35.90;11.20
2563;BME280;1291;51.420;6.970;2023-02-20T13:58:04;100546.03;;;36.97;10.05
2563;BME280;1291;51.420;6.970;2023-02-20T14:00:52;100532.22;;;37.83;9.46
2563;BME280;1291;51.420;6.970;2023-02-20T14:03:22;100524.13;;;36.65;10.53
2563;BME280;1291;51.420;6.970;2023-02-20T14:06:23;100525.56;;;37.64;9.96
2563;BME280;1291;51.420;6.970;2023-02-20T14:08:48;100533.22;;;38.15;9.25
2563;BME280;1291;51.420;6.970;2023-02-20T14:11:24;100528.75;;;37.58;10.08
2563;BME280;1291;51.420;6.970;2023-02-20T14:13:54;100524.69;;;37.86;9.75
2563;BME280;1291;51.420;6.970;2023-02-20T14:16:36;100527.22;;;38.55;9.43
2563;BME280;1291;51.420;6.970;2023-02-20T14:19:17;100520.34;;;36.31;10.78
2563;BME280;1291;51.420;6.970;2023-02-20T14:21:44;100511.31;;;37.38;10.16
2563;BME280;1291;51.420;6.970;2023-02-20T14:24:19;100509.63;;;34.19;11.94
2563;BME280;1291;51.420;6.970;2023-02-20T14:26:45;100512.03;;;38.09;9.54
2563;BME280;1291;51.420;6.970;2023-02-20T14:29:31;100504.38;;;39.74;8.41
2563;BME280;1291;51.420;6.970;2023-02-20T14:32:02;100501.84;;;38.56;9.29
2563;BME280;1291;51.420;6.970;2023-02-20T14:34:42;100499.56;;;38.94;8.90
2563;BME280;1291;51.420;6.970;2023-02-20T14:42:25;100506.22;;;39.01;8.92
2563;BME280;1291;51.420;6.970;2023-02-20T14:45:15;100497.44;;;38.33;9.36
2563;BME280;1291;51.420;6.970;2023-02-20T14:47:59;100498.94;;;38.14;9.76
2563;BME280;1291;51.420;6.970;2023-02-20T14:50:31;100505.34;;;39.22;8.96
2563;BME280;1291;51.420;6.970;2023-02-20T14:55:27;100494.34;;;36.89;10.36
2563;BME280;1291;51.420;6.970;2023-02-20T14:57:52;100489.97;;;38.90;9.25
2563;BME280;1291;51.420;6.970;2023-02-20T15:02:48;100496.13;;;38.60;9.18
2563;BME280;1291;51.420;6.970;2023-02-20T15:05:26;100498.50;;;37.17;10.34
2563;BME280;1291;51.420;6.970;2023-02-20T15:07:59;100505.59;;;39.61;8.74
2563;BME280;1291;51.420;6.970;2023-02-20T15:10:35;100492.53;;;40.26;8.48
2563;BME280;1291;51.420;6.970;2023-02-20T15:13:22;100489.69;;;37.83;10.21
2563;BME280;1291;51.420;6.970;2023-02-20T15:16:04;100488.78;;;39.77;9.00